Time;durP1;ratioP1;P1;durP2;ratioP2;P2;SDS_P1;SDS_P2;PMS_P1;PMS_P2;Temp;Humidity;BMP_temperature;BMP_pressure;BME280_temperature;BME280_humidity;BME280_pressure;Samples;Min_cycle;Max_cycle;Signal;HPM_P1;HPM_P2
2022/08/26 00:00:41;;;;;;;20.13;14.27;;;21.10;78.30;;;20.31;100.00;95763.00;5009385;28;20077;-65
2022/08/26 00:03:07;;;;;;;19.02;13.85;;;21.00;78.40;;;20.26;100.00;95768.31;4994790;28;20448;-65
2022/08/26 00:05:34;;;;;;;20.27;14.85;;;21.00;78.50;;;20.22;100.00;95761.88;5027649;28;20033;-65
2022/08/26 00:07:59;;;;;;;19.17;13.98;;;20.90;78.60;;;20.19;100.00;95764.00;5026719;28;20117;-65
2022/08/26 00:10:25;;;;;;;19.25;14.60;;;20.90;78.60;;;20.18;100.00;95765.06;4994165;28;20350;-65
2022/08/26 00:12:51;;;;;;;17.60;13.95;;;20.90;78.70;;;20.16;100.00;95772.53;5000655;28;20034;-65
2022/08/26 00:15:18;;;;;;;16.02;13.90;;;20.90;78.50;;;20.14;100.00;95763.16;4991526;28;20034;-65
2022/08/26 00:17:45;;;;;;;16.10;13.85;;;20.90;78.50;;;20.11;100.00;95766.34;5003819;28;20428;-65
2022/08/26 00:20:12;;;;;;;18.85;14.00;;;20.90;78.50;;;20.05;100.00;95757.50;5035059;28;20029;-65
2022/08/26 00:22:38;;;;;;;19.15;14.52;;;20.80;78.70;;;20.02;100.00;95758.03;5019785;28;20477;-65
2022/08/26 00:25:05;;;;;;;20.15;14.38;;;20.70;78.80;;;19.98;100.00;95764.94;5018761;28;20034;-65
2022/08/26 00:27:34;;;;;;;20.15;14.75;;;20.70;78.90;;;19.93;100.00;95754.22;5025120;28;20121;-65
2022/08/26 00:30:02;;;;;;;22.85;15.50;;;20.70;79.10;;;19.91;100.00;95756.31;5011725;28;20057;-65
2022/08/26 00:32:28;;;;;;;18.70;15.00;;;20.70;79.30;;;19.90;100.00;95765.38;5017408;28;20041;-65
2022/08/26 00:34:53;;;;;;;21.98;15.57;;;20.60;79.50;;;19.84;100.00;95761.88;5023151;28;20044;-65
2022/08/26 00:37:19;;;;;;;18.67;15.65;;;20.60;79.80;;;19.83;100.00;95764.81;5010435;28;20030;-64
2022/08/26 00:39:45;;;;;;;22.17;15.73;;;20.60;79.70;;;19.81;100.00;95762.41;5022839;28;20030;-64
2022/08/26 00:42:11;;;;;;;20.35;15.50;;;20.60;79.80;;;19.80;100.00;95757.31;5028400;28;20120;-64
2022/08/26 00:44:36;;;;;;;21.85;15.15;;;20.60;79.70;;;19.78;100.00;95762.91;5017703;28;20129;-64
2022/08/26 00:47:05;;;;;;;18.30;14.98;;;20.60;79.50;;;19.76;100.00;95764.22;5010722;28;20033;-65
2022/08/26 00:49:40;;;;;;;21.15;15.45;;;20.60;79.40;;;19.75;100.00;95757.28;5027259;28;20116;-65
2022/08/26 00:52:10;;;;;;;19.20;15.70;;;20.60;79.40;;;19.73;100.00;95760.22;4983054;28;20040;-65
2022/08/26 00:54:39;;;;;;;19.80;15.77;;;20.50;79.40;;;19.69;100.00;95760.94;4997957;28;20417;-65
2022/08/26 00:57:08;;;;;;;16.48;14.43;;;20.50;79.40;;;19.68;100.00;95764.69;4990380;28;20038;-65
2022/08/26 00:59:34;;;;;;;22.35;15.40;;;20.50;79.40;;;19.67;100.00;95763.06;4993886;28;20033;-65
2022/08/26 01:02:00;;;;;;;21.60;16.02;;;20.50;79.50;;;19.65;100.00;95762.53;5004785;28;20112;-65
2022/08/26 01:04:26;;;;;;;19.20;15.52;;;20.50;79.50;;;19.64;100.00;95761.72;5023733;28;20041;-65
2022/08/26 01:06:52;;;;;;;22.10;15.77;;;20.60;79.50;;;19.63;100.00;95768.13;5013974;28;20114;-65
2022/08/26 01:09:18;;;;;;;18.27;15.77;;;20.50;79.60;;;19.62;100.00;95763.03;5010063;28;20554;-65
2022/08/26 01:11:45;;;;;;;20.08;15.75;;;20.50;79.80;;;19.61;100.00;95766.75;5024189;28;20038;-65
2022/08/26 01:14:12;;;;;;;19.75;16.33;;;20.40;79.80;;;19.60;100.00;95775.81;4993701;28;20049;-64
2022/08/26 01:16:38;;;;;;;20.65;16.85;;;20.40;79.80;;;19.54;100.00;95767.78;5008938;28;20041;-64
2022/08/26 01:19:26;;;;;;;23.10;16.20;;;20.30;79.90;;;19.51;100.00;95760.25;5023564;28;20037;-65
2022/08/26 01:22:07;;;;;;;23.27;15.82;;;20.30;80.10;;;19.47;100.00;95767.16;5009200;28;20071;-64
2022/08/26 01:24:33;;;;;;;;;;;20.20;80.00;;;19.41;100.00;95762.81;4995050;28;20060;-64
2022/08/26 01:27:04;;;;;;;17.80;13.18;;;20.10;80.00;;;19.36;100.00;95770.78;4994046;28;20376;-65
2022/08/26 01:29:30;;;;;;;16.52;14.00;;;20.10;79.90;;;19.31;100.00;95768.06;5020614;28;20037;-65
2022/08/26 01:31:56;;;;;;;17.08;13.32;;;20.10;80.00;;;19.28;100.00;95769.38;5002281;28;20038;-65
2022/08/26 01:34:26;;;;;;;17.63;13.88;;;20.10;80.20;;;19.28;100.00;95772.03;5004763;28;20093;-64
2022/08/26 01:36:59;;;;;;;16.83;13.63;;;20.10;80.00;;;19.27;100.00;95766.97;5000791;28;20091;-65
2022/08/26 01:39:25;;;;;;;21.27;14.25;;;20.10;79.90;;;19.26;100.00;95766.16;5011135;28;20061;-65
2022/08/26 01:41:53;;;;;;;19.63;14.02;;;20.10;79.80;;;19.26;100.00;95760.81;5022254;28;20037;-65
2022/08/26 01:44:20;;;;;;;18.02;13.80;;;20.20;79.70;;;19.26;100.00;95765.34;5011052;28;20078;-65
2022/08/26 01:46:46;;;;;;;17.58;13.48;;;20.20;79.70;;;19.26;100.00;95765.34;5002109;28;20045;-65
2022/08/26 01:49:12;;;;;;;18.13;13.88;;;20.10;79.80;;;19.26;100.00;95766.16;4973251;28;20037;-65
2022/08/26 01:51:38;;;;;;;18.38;13.70;;;20.10;79.70;;;19.25;100.00;95764.53;5022086;28;20041;-65
2022/08/26 01:54:05;;;;;;;20.80;15.98;;;20.10;79.50;;;19.25;100.00;95769.06;4989979;28;20068;-65
2022/08/26 01:56:30;;;;;;;17.48;14.90;;;20.10;79.80;;;19.22;100.00;95764.22;4979281;28;20475;-65
2022/08/26 01:58:57;;;;;;;17.88;14.05;;;20.10;80.00;;;19.21;100.00;95767.94;5005639;28;20078;-65
2022/08/26 02:01:23;;;;;;;15.98;14.27;;;20.10;79.90;;;19.19;100.00;95770.88;5005886;28;20033;-65
2022/08/26 02:04:02;;;;;;;20.48;13.00;;;20.10;79.90;;;19.20;100.00;95771.66;5023555;28;20087;-65
2022/08/26 02:06:28;;;;;;;16.58;12.65;;;20.10;80.00;;;19.15;100.00;95767.09;5024796;28;20045;-65
2022/08/26 02:08:55;;;;;;;17.85;12.75;;;20.10;79.90;;;19.12;100.00;95769.47;5024305;28;20029;-65
2022/08/26 02:11:20;;;;;;;15.98;12.65;;;19.90;79.90;;;19.07;100.00;95772.06;5009286;28;20033;-64
2022/08/26 02:14:03;;;;;;;16.40;12.60;;;19.90;80.10;;;19.06;100.00;95762.47;5007195;28;20535;-65
2022/08/26 02:16:32;;;;;;;17.33;12.35;;;19.90;80.10;;;19.03;100.00;95765.63;5011701;28;20033;-65
2022/08/26 02:18:59;;;;;;;19.20;13.25;;;19.90;80.20;;;19.00;100.00;95758.91;5022541;28;20525;-65
2022/08/26 02:21:24;;;;;;;16.08;13.55;;;19.90;80.20;;;19.00;100.00;95766.13;5026313;28;20057;-65
2022/08/26 02:23:51;;;;;;;16.35;14.05;;;19.90;80.20;;;18.97;100.00;95768.22;5005789;28;20030;-65
2022/08/26 02:26:20;;;;;;;18.98;14.75;;;19.80;80.50;;;18.94;100.00;95768.72;5007651;28;20088;-65
2022/08/26 02:28:56;;;;;;;21.52;15.73;;;19.80;80.30;;;18.91;100.00;95768.44;5016638;28;20034;-65
2022/08/26 02:31:21;;;;;;;21.27;15.60;;;19.70;80.70;;;18.87;100.00;95768.13;5019235;28;20038;-65
2022/08/26 02:33:47;;;;;;;17.77;15.10;;;19.70;80.90;;;18.82;100.00;95769.94;5023939;28;20625;-63
2022/08/26 02:36:21;;;;;;;19.75;14.93;;;19.60;80.60;;;18.78;100.00;95771.44;4995144;28;20033;-64
2022/08/26 02:38:47;;;;;;;16.42;11.77;;;19.60;80.70;;;18.73;100.00;95766.88;5021986;28;20038;-63
2022/08/26 02:41:13;;;;;;;18.08;15.05;;;19.50;81.10;;;18.72;100.00;95765.25;5013596;28;20166;-64
2022/08/26 02:43:39;;;;;;;24.30;15.00;;;19.50;81.10;;;18.71;100.00;95769.00;5024800;28;20044;-63
2022/08/26 02:46:04;;;;;;;19.05;16.10;;;19.60;81.00;;;18.69;100.00;95760.44;5006588;28;20127;-64
2022/08/26 02:48:30;;;;;;;19.50;15.40;;;19.60;81.10;;;18.67;100.00;95752.69;5021170;28;20084;-64
2022/08/26 02:50:59;;;;;;;26.20;17.08;;;19.60;81.20;;;18.67;100.00;95752.69;5004104;28;20053;-64
2022/08/26 02:53:25;;;;;;;23.50;17.35;;;19.60;81.30;;;18.67;100.00;95757.22;5031413;28;20053;-64
2022/08/26 02:55:50;;;;;;;19.98;16.98;;;19.50;81.60;;;18.69;100.00;95748.97;5010836;28;20465;-64
2022/08/26 02:58:16;;;;;;;21.50;16.83;;;19.60;81.70;;;18.70;100.00;95753.25;5017074;28;20080;-64
2022/08/26 03:00:42;;;;;;;23.75;18.20;;;19.60;81.60;;;18.71;100.00;95749.53;5021475;28;20456;-64
2022/08/26 03:03:08;;;;;;;24.67;18.67;;;19.70;81.60;;;18.71;100.00;95750.34;5028257;28;20128;-64
2022/08/26 03:05:34;;;;;;;23.35;18.40;;;19.60;81.80;;;18.71;100.00;95753.00;4995718;28;20037;-64
2022/08/26 03:08:00;;;;;;;21.55;18.17;;;19.70;81.60;;;18.73;100.00;95753.56;5019640;28;21023;-64
2022/08/26 03:10:26;;;;;;;23.83;18.38;;;19.70;81.70;;;18.72;100.00;95754.59;5021672;28;20022;-64
2022/08/26 03:12:52;;;;;;;26.52;18.35;;;19.70;81.80;;;18.72;100.00;95749.28;5023249;28;20034;-64
2022/08/26 03:15:18;;;;;;;23.13;17.38;;;19.70;81.80;;;18.71;100.00;95742.34;4990173;28;20419;-64
2022/08/26 03:17:47;;;;;;;21.58;17.35;;;19.60;82.00;;;18.72;100.00;95741.28;5022552;28;20036;-64
2022/08/26 03:20:12;;;;;;;21.38;17.08;;;19.60;82.00;;;18.75;100.00;95747.97;5000413;28;20214;-64
2022/08/26 03:22:38;;;;;;;26.15;18.63;;;19.60;82.00;;;18.77;100.00;95741.34;5021676;28;20113;-64
2022/08/26 03:25:07;;;;;;;25.60;19.05;;;19.70;81.90;;;18.74;100.00;95733.84;5012225;28;20117;-64
2022/08/26 03:27:33;;;;;;;25.13;19.40;;;19.60;82.30;;;18.75;100.00;95738.13;5029052;28;20127;-64
2022/08/26 03:32:43;;;;;;;23.95;19.27;;;19.80;82.40;;;18.77;100.00;95724.56;5024681;28;20507;-64
2022/08/26 03:35:10;;;;;;;23.98;20.05;;;19.80;82.40;;;18.78;100.00;95732.28;5026667;28;20128;-65
2022/08/26 03:37:36;;;;;;;26.55;20.20;;;19.80;82.30;;;18.78;100.00;95740.28;5006502;28;20030;-64
2022/08/26 03:40:02;;;;;;;24.48;20.25;;;19.80;82.20;;;18.79;100.00;95733.13;4993396;28;20037;-65
2022/08/26 03:42:28;;;;;;;24.75;20.55;;;19.80;82.20;;;18.80;100.00;95745.41;5016338;28;20394;-65
2022/08/26 03:44:54;;;;;;;26.40;21.00;;;19.80;82.30;;;18.81;100.00;95737.16;5003756;28;20044;-65
2022/08/26 03:47:20;;;;;;;26.83;19.98;;;19.80;82.10;;;18.82;100.00;95743.28;5007568;28;20042;-66
2022/08/26 03:49:45;;;;;;;26.95;19.30;;;19.80;81.80;;;18.82;100.00;95743.28;5005521;28;20040;-65
2022/08/26 03:52:11;;;;;;;25.83;19.13;;;19.70;81.70;;;18.81;100.00;95742.47;5008155;28;20417;-66
2022/08/26 03:54:37;;;;;;;26.95;19.75;;;19.80;81.70;;;18.82;100.00;95737.97;4993288;28;20183;-66
2022/08/26 03:57:03;;;;;;;25.60;19.33;;;19.80;81.70;;;18.80;100.00;95735.53;5007085;28;20053;-66
2022/08/26 03:59:28;;;;;;;28.83;19.60;;;19.70;81.60;;;18.77;100.00;95738.69;5026668;28;20034;-66
2022/08/26 04:01:54;;;;;;;25.17;18.05;;;19.70;81.60;;;18.74;100.00;95747.16;5009495;28;20138;-65
2022/08/26 04:04:20;;;;;;;23.73;16.88;;;19.60;81.40;;;18.71;100.00;95745.00;5019211;28;20378;-66
2022/08/26 04:06:45;;;;;;;18.23;15.63;;;19.60;81.20;;;18.65;100.00;95743.34;5010463;28;20590;-66
2022/08/26 04:09:18;;;;;;;16.95;14.80;;;19.50;81.10;;;18.64;100.00;95747.06;5025878;28;20103;-66
2022/08/26 04:11:44;;;;;;;22.88;14.35;;;19.60;81.00;;;18.60;100.00;95745.91;5023989;28;20032;-66
2022/08/26 04:14:13;;;;;;;15.27;12.75;;;19.50;80.90;;;18.59;100.00;95749.63;5029173;28;20071;-66
2022/08/26 04:16:39;;;;;;;19.23;13.45;;;19.50;80.60;;;18.53;100.00;95746.09;5026020;28;20464;-66
2022/08/26 04:19:05;;;;;;;18.98;14.00;;;19.50;80.60;;;18.49;100.00;95742.31;5009181;28;20030;-66
2022/08/26 04:21:31;;;;;;;14.32;12.82;;;19.40;80.90;;;18.46;100.00;95744.66;5029167;28;20072;-66
2022/08/26 04:23:56;;;;;;;18.25;13.77;;;19.40;80.90;;;18.45;100.00;95743.06;5027099;28;20042;-66
2022/08/26 04:26:22;;;;;;;15.95;12.85;;;19.40;80.90;;;18.43;100.00;95745.97;5007124;28;20038;-66
2022/08/26 04:28:49;;;;;;;20.83;14.13;;;19.40;80.80;;;18.43;100.00;95745.16;5028693;28;20079;-66
2022/08/26 04:31:16;;;;;;;23.00;14.52;;;19.40;80.80;;;18.41;100.00;95749.94;5028370;28;20052;-66
2022/08/26 04:33:42;;;;;;;21.40;14.85;;;19.40;80.80;;;18.39;100.00;95744.84;4984722;28;1042053;-66
2022/08/26 04:36:09;;;;;;;16.15;14.13;;;19.40;80.80;;;18.36;100.00;95746.16;5017959;28;20025;-66
2022/08/26 04:38:35;;;;;;;19.98;14.23;;;19.40;81.00;;;18.33;100.00;95745.81;4998919;28;20033;-66
2022/08/26 04:41:02;;;;;;;17.52;13.50;;;19.30;81.20;;;18.31;100.00;95743.41;5002102;28;20038;-66
2022/08/26 04:43:29;;;;;;;19.23;14.60;;;19.30;81.30;;;18.31;100.00;95742.59;4999646;28;20029;-66
2022/08/26 04:46:01;;;;;;;17.20;13.90;;;19.30;81.40;;;18.32;100.00;95750.34;5007129;28;20056;-66
2022/08/26 04:48:28;;;;;;;18.58;14.55;;;19.30;81.50;;;18.32;100.00;95750.34;5005619;28;20087;-67
2022/08/26 04:50:54;;;;;;;17.73;15.32;;;19.30;81.30;;;18.35;100.00;95757.84;5009895;28;20451;-66
2022/08/26 04:53:20;;;;;;;19.17;14.55;;;19.40;81.20;;;18.33;100.00;95751.97;5028073;28;20124;-67
2022/08/26 04:55:46;;;;;;;21.67;15.68;;;19.40;81.10;;;18.36;100.00;95756.81;5023272;28;20038;-67
2022/08/26 04:58:17;;;;;;;18.55;15.05;;;19.40;81.20;;;18.40;100.00;95758.97;4993661;28;20037;-67
2022/08/26 05:00:47;;;;;;;17.70;14.80;;;19.50;81.10;;;18.43;100.00;95761.13;5009875;28;20060;-68
2022/08/26 05:03:14;;;;;;;19.25;14.95;;;19.50;81.00;;;18.43;100.00;95761.13;5007911;28;20033;-67
2022/08/26 05:05:41;;;;;;;21.00;15.60;;;19.50;81.30;;;18.43;100.00;95750.50;5008486;28;20028;-66
2022/08/26 05:08:08;;;;;;;21.55;16.50;;;19.50;81.30;;;18.43;100.00;95751.28;5021263;28;20325;-66
2022/08/26 05:10:39;;;;;;;25.08;16.88;;;19.50;81.40;;;18.47;100.00;95751.59;5023300;28;20029;-63
2022/08/26 05:13:05;;;;;;;20.33;16.98;;;19.60;81.60;;;18.50;100.00;95762.56;4993226;28;20062;-62
2022/08/26 05:15:31;;;;;;;21.98;17.27;;;19.60;81.50;;;18.53;100.00;95755.94;4982263;28;20500;-70
2022/08/26 05:17:58;;;;;;;22.08;18.00;;;19.60;81.40;;;18.57;100.00;95765.06;5023219;28;20091;-70
2022/08/26 05:20:24;;;;;;;25.75;19.20;;;19.70;81.40;;;18.59;100.00;95765.63;4995366;28;20526;-71
2022/08/26 05:22:50;;;;;;;26.73;19.02;;;19.70;81.50;;;18.60;100.00;95759.25;5011011;28;20033;-72
2022/08/26 05:25:17;;;;;;;24.02;18.08;;;19.70;81.70;;;18.64;100.00;95757.72;5002368;28;20057;-71
2022/08/26 05:27:43;;;;;;;23.25;18.15;;;19.70;81.70;;;18.65;100.00;95767.31;5022532;28;20030;-70
2022/08/26 05:30:09;;;;;;;23.85;18.08;;;19.70;81.50;;;18.67;100.00;95767.88;4991924;28;20040;-74
2022/08/26 05:32:35;;;;;;;21.45;18.15;;;19.80;81.50;;;18.68;100.00;95764.16;5003792;28;20405;-69
2022/08/26 05:35:00;;;;;;;24.38;18.73;;;19.80;81.60;;;18.71;100.00;95765.50;5025537;28;20029;-72
2022/08/26 05:37:26;;;;;;;23.00;18.25;;;19.80;81.60;;;18.73;100.00;95772.19;4976215;28;20034;-71
2022/08/26 05:39:52;;;;;;;27.73;19.50;;;19.90;81.50;;;18.77;100.00;95768.00;5004581;28;20044;-73
2022/08/26 05:42:18;;;;;;;29.77;22.02;;;20.00;81.50;;;18.81;100.00;95768.31;5005699;28;20034;-70
2022/08/26 05:44:44;;;;;;;26.38;21.88;;;20.00;81.70;;;18.83;100.00;95772.34;4994938;28;20033;-65
2022/08/26 05:47:10;;;;;;;28.23;21.95;;;20.00;81.70;;;18.86;100.00;95771.84;5016049;28;20038;-70
2022/08/26 05:49:36;;;;;;;30.80;22.35;;;20.10;81.80;;;18.88;100.00;95769.72;4991351;28;20509;-70
2022/08/26 05:52:03;;;;;;;30.50;23.02;;;20.10;81.80;;;18.94;100.00;95774.06;5013914;28;20040;-72
2022/08/26 05:54:28;;;;;;;31.08;23.30;;;20.10;81.80;;;18.99;100.00;95770.63;5035139;28;20112;-69
2022/08/26 05:56:54;;;;;;;31.77;23.98;;;20.30;81.70;;;19.06;100.00;95765.13;5022522;28;20868;-72
2022/08/26 05:59:20;;;;;;;32.08;22.85;;;20.30;81.70;;;19.12;100.00;95774.78;5003911;28;20501;-70
2022/08/26 06:01:45;;;;;;;31.92;23.77;;;20.40;81.60;;;19.18;100.00;95768.44;5020140;28;20149;-71
2022/08/26 06:04:11;;;;;;;28.05;22.27;;;20.50;81.50;;;19.25;100.00;95769.06;5023406;28;20502;-71
2022/08/26 06:06:40;;;;;;;18.10;15.20;;;20.60;81.10;;;19.34;100.00;95772.09;5021246;28;20779;-71
2022/08/26 06:09:06;;;;;;;17.65;14.32;;;20.70;80.00;;;19.38;100.00;95776.66;5008463;28;20030;-71
2022/08/26 06:11:32;;;;;;;19.20;14.07;;;20.70;79.40;;;19.43;100.00;95782.03;5009060;28;20064;-61
2022/08/26 06:14:02;;;;;;;21.27;15.13;;;20.70;79.00;;;19.45;100.00;95779.91;5006393;28;20489;-60
2022/08/26 06:16:30;;;;;;;25.10;17.15;;;20.80;78.90;;;19.49;100.00;95782.91;5011386;28;20521;-71
2022/08/26 06:18:56;;;;;;;20.48;15.70;;;20.90;78.90;;;19.53;100.00;95786.69;5000743;28;20476;-73
2022/08/26 06:21:32;;;;;;;16.42;14.15;;;20.90;78.60;;;19.58;100.00;95778.75;4987829;28;20137;-69
2022/08/26 06:26:52;;;;;;;29.27;22.50;;;21.10;78.80;;;19.74;100.00;95777.03;5013373;28;20374;-60
2022/08/26 06:29:19;;;;;;;28.35;21.38;;;21.20;78.90;;;19.84;100.00;95779.75;4987946;28;20123;-71
2022/08/26 06:31:45;;;;;;;25.73;19.88;;;21.30;78.90;;;19.89;100.00;95783.28;4987425;28;20030;-72
2022/08/26 06:34:11;;;;;;;19.80;16.45;;;21.40;78.60;;;19.97;100.00;95779.34;5032537;28;20184;-72
2022/08/26 06:36:38;;;;;;;21.50;14.65;;;21.40;78.00;;;20.02;100.00;95779.38;5019855;28;20041;-70
2022/08/26 06:39:08;;;;;;;21.58;16.40;;;21.50;77.90;;;20.07;100.00;95782.06;5006249;28;20136;-69
2022/08/26 06:41:35;;;;;;;25.35;18.70;;;21.50;78.10;;;20.11;100.00;95777.03;5014437;28;20038;-69
2022/08/26 06:44:01;;;;;;;26.67;21.17;;;21.60;78.70;;;20.15;100.00;95776.28;5001039;28;20034;-70
2022/08/26 06:46:28;;;;;;;25.52;20.70;;;21.60;78.40;;;20.21;100.00;95776.31;4996166;28;20037;-70
2022/08/26 06:48:54;;;;;;;28.33;21.17;;;21.60;78.30;;;20.26;100.00;95773.66;5006276;28;20036;-70
2022/08/26 06:51:22;;;;;;;28.23;21.52;;;21.70;78.40;;;20.33;100.00;95779.56;5026170;28;20022;-71
2022/08/26 06:53:49;;;;;;;31.30;22.40;;;21.80;78.20;;;20.40;100.00;95780.16;5006703;28;20383;-69
2022/08/26 06:56:19;;;;;;;29.08;22.20;;;21.90;78.00;;;20.51;100.00;95784.53;4970699;28;20044;-69
2022/08/26 06:58:44;;;;;;;29.67;23.50;;;22.10;77.60;;;20.58;100.00;95782.41;5014447;28;20033;-71
2022/08/26 07:01:24;;;;;;;29.73;22.27;;;22.20;77.10;;;20.71;100.00;95787.31;5004176;28;20668;-66
2022/08/26 07:03:51;;;;;;;27.57;22.30;;;22.40;76.90;;;20.83;100.00;95778.28;5018473;28;20048;-70
2022/08/26 07:06:18;;;;;;;33.65;23.13;;;22.60;76.80;;;20.98;100.00;95786.34;5000943;28;20284;-70
2022/08/26 07:08:45;;;;;;;28.33;21.02;;;22.80;76.10;;;21.14;100.00;95785.34;5021728;28;20029;-70
2022/08/26 07:11:11;;;;;;;28.15;21.77;;;23.00;75.40;;;21.30;100.00;95781.69;5004505;28;20038;-72
2022/08/26 07:13:37;;;;;;;28.90;21.52;;;23.20;74.90;;;21.47;100.00;95788.66;5016719;28;20033;-71
2022/08/26 07:16:04;;;;;;;25.95;20.00;;;23.40;74.30;;;21.64;100.00;95789.22;4994301;28;20452;-72
2022/08/26 07:18:32;;;;;;;27.42;19.85;;;23.60;74.20;;;21.85;100.00;95784.69;5008714;28;20042;-67
2022/08/26 07:21:04;;;;;;;25.92;20.90;;;23.90;73.70;;;22.03;100.00;95792.19;5024213;28;20121;-68
2022/08/26 07:23:30;;;;;;;26.63;20.33;;;24.00;72.80;;;22.16;100.00;95793.53;5006958;28;20512;-68
2022/08/26 07:25:56;;;;;;;25.38;19.67;;;24.10;72.80;;;22.31;100.00;95798.88;5034105;28;20451;-69
2022/08/26 07:28:22;;;;;;;26.25;19.75;;;24.30;72.20;;;22.41;100.00;95796.19;5024658;28;20096;-68
2022/08/26 07:30:48;;;;;;;25.48;20.08;;;24.30;71.30;;;22.48;100.00;95794.03;5008171;28;20029;-70
2022/08/26 07:33:13;;;;;;;24.65;18.33;;;24.30;71.10;;;22.56;100.00;95804.19;5021919;28;20096;-69
2022/08/26 07:35:39;;;;;;;25.02;18.45;;;24.30;70.90;;;22.64;100.00;95802.84;5028505;28;20044;-69
2022/08/26 07:38:05;;;;;;;24.50;19.20;;;24.50;70.70;;;22.70;100.00;95795.59;5008915;28;20565;-69
2022/08/26 07:40:32;;;;;;;24.98;19.13;;;24.40;70.50;;;22.73;100.00;95797.72;5029237;28;20608;-69
2022/08/26 07:42:58;;;;;;;26.92;19.00;;;24.50;70.60;;;22.72;100.00;95798.81;5010082;28;20046;-67
2022/08/26 07:45:24;;;;;;;23.40;18.63;;;24.30;70.60;;;22.71;100.00;95802.56;4989557;28;20022;-67
2022/08/26 07:47:50;;;;;;;27.55;19.50;;;24.30;70.80;;;22.73;100.00;95801.22;5024791;28;20041;-68
2022/08/26 07:50:15;;;;;;;24.52;19.45;;;24.40;70.70;;;22.77;100.00;95802.25;5028734;28;20042;-69
2022/08/26 07:52:41;;;;;;;25.63;18.10;;;24.40;70.80;;;22.82;100.00;95804.16;5012729;28;20050;-68
2022/08/26 07:55:08;;;;;;;22.63;17.45;;;24.50;70.80;;;22.90;100.00;95798.25;5018687;28;20093;-63
2022/08/26 07:57:33;;;;;;;23.10;17.00;;;24.60;70.90;;;22.95;100.00;95798.22;5029267;28;20048;-68
2022/08/26 07:59:59;;;;;;;30.65;18.73;;;24.60;70.10;;;23.03;100.00;95799.50;5038808;28;20077;-70
2022/08/26 08:02:25;;;;;;;25.63;18.98;;;24.70;70.30;;;23.09;100.00;95803.81;5013147;28;20034;-68
2022/08/26 08:04:51;;;;;;;26.92;18.90;;;24.70;70.10;;;23.12;100.00;95798.69;5004883;28;20100;-69
2022/08/26 08:07:17;;;;;;;23.05;16.85;;;24.80;70.00;;;23.16;100.00;95805.09;5024501;28;20034;-68
2022/08/26 08:09:43;;;;;;;23.85;18.73;;;24.80;69.80;;;23.16;100.00;95793.56;5023040;28;20076;-68
2022/08/26 08:12:08;;;;;;;24.10;18.17;;;24.80;69.90;;;23.21;100.00;95801.59;5006497;28;20366;-67
2022/08/26 08:14:36;;;;;;;24.00;18.42;;;25.00;70.00;;;23.32;100.00;95802.34;5041229;28;20137;-67
2022/08/26 08:17:03;;;;;;;23.83;18.00;;;25.20;68.40;;;23.47;100.00;95799.56;5025290;28;20037;-69
2022/08/26 08:19:28;;;;;;;21.08;17.67;;;25.60;67.50;;;23.68;100.00;95792.22;5006046;28;20030;-68
2022/08/26 08:21:54;;;;;;;26.48;16.83;;;25.90;66.70;;;23.82;100.00;95785.94;5021720;28;20064;-68
2022/08/26 08:24:20;;;;;;;25.20;17.65;;;26.00;66.00;;;23.98;100.00;95788.50;5026594;28;20057;-70
2022/08/26 08:26:46;;;;;;;22.23;17.23;;;26.20;65.90;;;24.08;99.19;95789.22;5032915;28;20470;-67
2022/08/26 08:29:12;;;;;;;22.67;17.50;;;26.20;65.60;;;24.26;98.30;95795.78;5023369;28;20042;-66
2022/08/26 08:31:38;;;;;;;20.08;17.50;;;26.70;64.70;;;24.50;98.99;95795.06;5010299;28;20052;-66
2022/08/26 08:34:04;;;;;;;19.58;16.15;;;27.10;64.10;;;24.79;97.50;95790.44;5023231;28;20113;-66
2022/08/26 08:36:29;;;;;;;20.75;15.35;;;27.60;61.60;;;25.04;95.37;95784.78;5009500;28;20073;-66
2022/08/26 08:38:55;;;;;;;22.02;16.52;;;28.00;60.20;;;25.38;94.62;95783.81;5025421;28;20491;-65
2022/08/26 08:41:51;;;;;;;20.33;15.93;;;28.50;59.70;;;25.74;88.66;95780.63;5008270;28;20042;-66
2022/08/26 08:44:22;;;;;;;21.70;15.45;;;28.70;57.50;;;25.98;89.16;95781.31;5023332;28;20064;-65
2022/08/26 08:46:58;;;;;;;18.88;14.38;;;28.90;57.20;;;26.25;87.67;95773.34;5009502;28;20063;-66
2022/08/26 08:49:24;;;;;;;23.23;15.07;;;29.10;57.40;;;26.46;88.71;95783.75;5026275;28;20056;-67
2022/08/26 08:52:01;;;;;;;19.80;14.73;;;29.30;55.90;;;26.66;85.19;95785.28;4994788;28;20033;-66
2022/08/26 08:54:28;;;;;;;22.85;14.38;;;29.50;55.10;;;26.93;86.23;95784.50;5008471;28;20130;-66
2022/08/26 08:57:43;;;;;;;19.30;13.98;;;30.00;55.10;;;27.28;80.97;95775.69;5031395;28;20037;-67
2022/08/26 09:00:15;;;;;;;19.08;12.93;;;30.30;53.30;;;27.68;83.36;95779.44;5025004;28;20045;-68
2022/08/26 09:02:58;;;;;;;16.33;11.48;;;31.10;52.90;;;28.19;75.92;95777.41;5005397;28;20044;-67
2022/08/26 09:05:30;;;;;;;17.02;11.20;;;31.70;49.30;;;28.61;76.87;95776.88;5002038;28;20133;-64
2022/08/26 09:08:17;;;;;;;30.65;16.73;;;32.30;48.80;;;29.00;72.23;95779.94;5023899;28;20216;-66
2022/08/26 09:10:50;;;;;;;17.52;12.13;;;32.30;47.10;;;29.22;73.04;95771.72;4987926;28;20037;-66
2022/08/26 09:13:17;;;;;;;20.95;13.63;;;32.20;48.00;;;29.40;74.98;95765.19;4989926;28;20037;-68
2022/08/26 09:16:30;;;;;;;28.70;17.67;;;32.40;47.80;;;29.75;69.97;95768.75;5022038;28;20106;-68
2022/08/26 09:19:13;;;;;;;48.28;24.60;;;32.90;47.70;;;30.04;70.50;95768.13;5021266;28;20037;-67
2022/08/26 09:21:39;;;;;;;21.85;13.93;;;33.10;47.60;;;30.27;72.58;95768.72;5007267;28;20030;-67
2022/08/26 09:24:06;;;;;;;18.23;11.55;;;33.30;46.50;;;30.47;71.58;95768.03;5033277;28;20045;-64
2022/08/26 09:26:37;;;;;;;15.63;11.88;;;33.50;45.80;;;30.52;66.53;95771.69;4991480;28;20571;-64
2022/08/26 09:29:09;;;;;;;17.00;11.75;;;33.30;45.30;;;30.54;67.91;95766.72;5026222;28;20112;-64
2022/08/26 09:31:36;;;;;;;16.60;11.75;;;33.20;46.00;;;30.59;69.15;95774.72;5009584;28;20103;-65
2022/08/26 09:34:06;;;;;;;17.98;12.95;;;33.30;45.90;;;30.68;67.79;95767.34;5008435;28;20030;-67
2022/08/26 09:36:32;;;;;;;18.17;11.30;;;33.30;46.90;;;30.71;67.97;95761.28;4998002;28;20038;-67
2022/08/26 09:38:58;;;;;;;16.00;11.30;;;33.10;45.70;;;30.74;67.33;95757.91;5027089;28;20128;-65
2022/08/26 09:41:32;;;;;;;14.55;10.73;;;33.20;46.00;;;30.72;64.12;95763.66;5008888;28;20104;-69
2022/08/26 09:44:13;;;;;;;11.35;8.02;;;33.00;45.80;;;30.71;63.73;95766.69;5004935;28;20037;-62
2022/08/26 09:46:51;;;;;;;17.17;9.63;;;33.00;46.00;;;30.80;62.82;95758.53;5003679;28;20501;-67
2022/08/26 09:49:28;;;;;;;17.38;9.07;;;33.40;44.90;;;30.92;63.15;95751.28;5023585;28;20611;-67
2022/08/26 09:52:23;;;;;;;13.32;8.40;;;33.60;45.40;;;31.18;64.12;95750.34;5025227;28;20056;-67
2022/08/26 09:55:07;;;;;;;14.23;9.13;;;34.10;45.40;;;31.44;61.25;95737.38;5015422;28;20030;-68
2022/08/26 09:57:35;;;;;;;13.80;7.40;;;34.60;43.00;;;31.72;62.54;95734.19;5018018;28;20056;-67
2022/08/26 10:00:26;;;;;;;11.80;6.47;;;35.00;42.50;;;32.04;60.90;95732.59;5005294;28;20036;-70
2022/08/26 10:02:52;;;;;;;10.43;6.50;;;35.60;41.90;;;32.41;61.54;95734.34;5004768;28;20036;-66
2022/08/26 10:05:35;;;;;;;12.50;6.10;;;36.20;40.70;;;32.73;54.81;95724.47;5011758;28;20553;-66
2022/08/26 10:08:29;;;;;;;11.45;5.78;;;36.60;37.30;;;33.19;54.96;95717.00;5006935;28;20131;-66
2022/08/26 10:10:57;;;;;;;10.98;5.85;;;37.50;37.40;;;33.62;56.10;95716.34;5008641;28;20034;-65